Time;durP1;ratioP1;P1;durP2;ratioP2;P2;SDS_P1;SDS_P2;PMS_P1;PMS_P2;Temp;Humidity;BMP_temperature;BMP_pressure;BME280_temperature;BME280_humidity;BME280_pressure;Samples;Min_cycle;Max_cycle;Signal;HPM_P1;HPM_P2
2022/03/07 00:02:12;;;;;;;12.75;9.27;;;;;;;1.07;63.33;102514.31;3577365;40;20152;-63
2022/03/07 00:04:38;;;;;;;12.77;8.32;;;;;;;1.05;64.51;102509.94;3580509;40;20068;-62
2022/03/07 00:07:04;;;;;;;15.35;9.52;;;;;;;1.06;63.79;102512.56;3581438;40;20123;-63
2022/03/07 00:09:30;;;;;;;13.40;8.13;;;;;;;1.05;63.43;102513.47;3578063;40;20075;-63
2022/03/07 00:11:55;;;;;;;10.80;8.98;;;;;;;1.04;64.38;102509.00;3579381;40;20379;-63
2022/03/07 00:14:21;;;;;;;12.25;8.30;;;;;;;1.01;64.14;102508.13;3580762;40;20053;-63
2022/03/07 00:16:47;;;;;;;13.13;8.77;;;;;;;0.90;63.88;102494.84;3583254;40;20063;-63
2022/03/07 00:19:13;;;;;;;11.60;8.55;;;;;;;0.97;64.09;102504.56;3579821;40;20056;-63
2022/03/07 00:21:39;;;;;;;12.20;8.80;;;;;;;0.93;64.62;102502.81;3578809;40;22052;-63
2022/03/07 00:24:07;;;;;;;13.57;8.95;;;;;;;0.92;63.43;102506.34;3571577;40;20059;-63
2022/03/07 00:26:34;;;;;;;11.10;8.27;;;;;;;0.81;64.14;102479.78;3577512;40;20419;-63
2022/03/07 00:28:59;;;;;;;13.35;8.45;;;;;;;0.86;63.65;102503.66;3578941;40;20561;-63
2022/03/07 00:31:25;;;;;;;13.25;8.00;;;;;;;0.85;64.67;102504.50;3578269;40;20125;-63
2022/03/07 00:33:51;;;;;;;11.52;8.20;;;;;;;0.82;63.45;102507.13;3579353;40;20056;-63
2022/03/07 00:36:19;;;;;;;11.05;8.13;;;;;;;0.80;64.71;102507.16;3581285;40;20391;-62
2022/03/07 00:38:45;;;;;;;13.32;8.43;;;;;;;0.81;63.96;102513.31;3578604;40;20080;-62
2022/03/07 00:41:12;;;;;;;12.48;7.78;;;;;;;0.68;64.33;102488.53;3577010;40;20079;-62
2022/03/07 00:43:39;;;;;;;15.15;8.50;;;;;;;0.77;64.92;102509.78;3575800;40;20048;-63
2022/03/07 00:46:05;;;;;;;11.65;8.35;;;;;;;0.75;63.87;102508.88;3578892;40;20048;-63
2022/03/07 00:48:30;;;;;;;16.90;9.07;;;;;;;0.73;64.01;102510.66;3579847;40;20104;-63
2022/03/07 00:50:56;;;;;;;14.75;9.23;;;;;;;0.62;64.89;102499.09;3582123;40;20287;-62
2022/03/07 00:53:24;;;;;;;12.57;8.88;;;;;;;0.71;63.97;102508.84;3580175;40;20052;-62
2022/03/07 00:55:52;;;;;;;14.10;9.30;;;;;;;0.69;64.66;102511.47;3579322;40;20060;-61
2022/03/07 00:58:18;;;;;;;15.45;9.00;;;;;;;0.68;64.05;102507.94;3580392;40;20048;-62
2022/03/07 01:00:44;;;;;;;20.08;9.82;;;;;;;0.67;63.67;102511.47;3575252;40;20075;-62
2022/03/07 01:03:13;;;;;;;12.15;8.65;;;;;;;0.62;63.73;102507.91;3576567;40;20439;-62
2022/03/07 01:05:40;;;;;;;12.88;8.73;;;;;;;0.62;64.85;102515.84;3578799;40;20067;-62
2022/03/07 01:08:08;;;;;;;13.18;8.45;;;;;;;0.62;64.57;102523.78;3579070;40;20080;-63
2022/03/07 01:10:35;;;;;;;13.85;8.73;;;;;;;0.61;65.03;102524.69;3579752;40;20072;-62
2022/03/07 01:13:01;;;;;;;11.57;8.27;;;;;;;0.60;64.70;102528.22;3577808;40;20366;-62
2022/03/07 01:15:27;;;;;;;13.82;8.32;;;;;;;0.22;64.00;102457.41;3578595;40;20063;-62
2022/03/07 01:17:54;;;;;;;12.57;8.32;;;;;;;0.56;64.64;102523.75;3578776;40;20098;-62
2022/03/07 01:20:20;;;;;;;13.85;8.57;;;;;;;0.36;64.60;102483.94;3578988;40;20055;-62
2022/03/07 01:22:48;;;;;;;11.68;8.57;;;;;;;0.58;64.97;102515.84;3576280;40;20053;-62
2022/03/07 01:25:13;;;;;;;10.80;8.23;;;;;;;0.45;64.36;102501.63;3579867;40;20108;-62
2022/03/07 01:27:40;;;;;;;14.30;8.82;;;;;;;0.53;64.21;102521.06;3579083;40;20052;-62
2022/03/07 01:30:07;;;;;;;13.40;8.90;;;;;;;0.52;64.59;102521.97;3576930;40;20117;-61
2022/03/07 01:32:33;;;;;;;12.20;8.63;;;;;;;0.49;64.16;102519.28;3578760;40;20063;-62
2022/03/07 01:34:59;;;;;;;12.63;8.35;;;;;;;0.45;63.81;102518.41;3576342;40;20064;-62
2022/03/07 01:37:25;;;;;;;14.60;9.43;;;;;;;0.42;64.59;102518.38;3574250;40;20129;-61
2022/03/07 01:39:50;;;;;;;13.77;9.45;;;;;;;0.39;65.02;102510.41;3575939;40;20060;-62
2022/03/07 01:42:16;;;;;;;11.68;8.88;;;;;;;0.16;64.95;102467.00;3574071;40;20291;-62
2022/03/07 01:44:42;;;;;;;13.20;9.27;;;;;;;0.37;64.84;102508.63;3576049;40;20045;-62
2022/03/07 01:47:07;;;;;;;13.77;8.32;;;;;;;0.36;64.92;102509.50;3579491;40;20070;-62
2022/03/07 01:49:33;;;;;;;11.15;8.80;;;;;;;0.36;65.01;102515.69;3575834;40;20068;-62
2022/03/07 01:51:59;;;;;;;11.93;8.90;;;;;;;0.35;65.87;102510.34;3576980;40;20092;-62
2022/03/07 01:54:26;;;;;;;12.00;8.75;;;;;;;0.32;64.66;102513.88;3574931;40;20414;-62
2022/03/07 01:56:53;;;;;;;14.75;9.18;;;;;;;0.32;65.26;102510.31;3576817;40;20044;-62
2022/03/07 01:59:26;;;;;;;13.18;9.13;;;;;;;0.28;65.02;102511.19;3574102;40;20055;-62
2022/03/07 02:01:54;;;;;;;14.07;9.68;;;;;;;0.26;65.15;102502.38;3579229;40;20075;-62
2022/03/07 02:04:21;;;;;;;12.75;8.80;;;;;;;0.26;65.82;102505.03;3577831;40;20049;-62
2022/03/07 02:06:48;;;;;;;14.45;8.98;;;;;;;0.23;65.48;102503.25;3577235;40;20065;-62
2022/03/07 02:09:15;;;;;;;14.50;9.60;;;;;;;0.21;65.51;102502.31;3578660;40;20052;-62
2022/03/07 02:11:41;;;;;;;12.95;9.38;;;;;;;0.20;65.42;102506.72;3579022;40;20056;-62
2022/03/07 02:14:22;;;;;;;13.65;8.98;;;;;;;0.16;66.63;102498.75;3575792;40;20303;-62
2022/03/07 02:16:49;;;;;;;14.88;9.55;;;;;;;0.19;65.99;102493.47;3571071;40;20044;-61
2022/03/07 02:19:15;;;;;;;14.23;9.38;;;;;;;0.18;67.09;102500.53;3579082;40;20044;-61
2022/03/07 02:21:59;;;;;;;13.43;9.65;;;;;;;0.16;66.94;102494.38;3571865;40;20040;-62
2022/03/07 02:24:24;;;;;;;13.82;9.95;;;;;;;0.13;66.20;102488.19;3576259;40;20053;-62
2022/03/07 02:27:18;;;;;;;14.82;9.43;;;;;;;0.14;66.82;102504.03;3579805;40;20311;-61
2022/03/07 02:29:46;;;;;;;13.13;9.57;;;;;;;-0.03;67.09;102466.03;3579311;40;20092;-62
2022/03/07 02:32:12;;;;;;;16.90;10.07;;;;;;;0.12;66.68;102487.25;3578496;40;20041;-62
2022/03/07 02:34:38;;;;;;;15.95;9.98;;;;;;;0.14;66.48;102489.94;3581058;40;20064;-62
2022/03/07 02:37:05;;;;;;;13.90;9.20;;;;;;;0.06;66.38;102474.00;3581294;40;20060;-62
2022/03/07 02:39:30;;;;;;;15.20;9.15;;;;;;;0.14;67.47;102490.81;3577978;40;20060;-62
2022/03/07 02:41:56;;;;;;;14.02;8.88;;;;;;;-0.17;66.47;102433.28;3575976;40;20052;-62
2022/03/07 02:44:23;;;;;;;12.80;8.98;;;;;;;0.12;67.44;102492.56;3578475;40;20086;-61
2022/03/07 02:46:49;;;;;;;13.43;9.32;;;;;;;0.11;66.58;102493.44;3582001;40;20061;-61
2022/03/07 02:49:14;;;;;;;13.57;9.30;;;;;;;0.08;67.30;102496.06;3581538;40;20044;-61
2022/03/07 02:51:40;;;;;;;15.68;9.25;;;;;;;0.06;67.21;102497.78;3578757;40;20049;-61
2022/03/07 02:54:06;;;;;;;19.00;10.10;;;;;;;0.06;67.25;102497.78;3579564;40;20121;-61
2022/03/07 02:56:32;;;;;;;14.05;10.07;;;;;;;0.04;66.58;102496.91;3578061;40;20080;-61
2022/03/07 02:58:58;;;;;;;15.88;9.75;;;;;;;-0.01;67.08;102495.97;3580576;40;20099;-62
2022/03/07 03:01:24;;;;;;;15.50;9.73;;;;;;;-0.17;67.12;102472.94;3580129;40;20443;-62
2022/03/07 03:03:49;;;;;;;16.67;10.35;;;;;;;-0.12;67.29;102484.44;3577616;40;20049;-62
2022/03/07 03:06:15;;;;;;;14.82;10.38;;;;;;;-0.13;67.29;102496.75;3622571;22;20432;-61
2022/03/07 03:08:40;;;;;;;16.33;10.52;;;;;;;-0.21;67.19;102476.41;3592384;40;20056;-61
2022/03/07 03:11:06;;;;;;;15.18;10.25;;;;;;;-0.20;67.65;102479.06;3587199;40;20063;-62
2022/03/07 03:13:32;;;;;;;14.98;10.23;;;;;;;-0.21;67.71;102487.00;3589365;40;20078;-61
2022/03/07 03:15:57;;;;;;;16.95;10.60;;;;;;;-0.22;67.90;102488.75;3577108;40;20060;-61
2022/03/07 03:18:23;;;;;;;13.95;10.10;;;;;;;-0.32;68.08;102474.56;3587592;40;20056;-61
2022/03/07 03:20:52;;;;;;;12.60;10.18;;;;;;;-0.28;67.88;102486.94;3587872;40;20117;-64
2022/03/07 03:23:22;;;;;;;14.77;9.95;;;;;;;-0.30;67.80;102486.03;3589955;40;20088;-64
2022/03/07 03:25:48;;;;;;;14.73;10.02;;;;;;;-0.26;67.76;102497.50;3590608;40;20372;-64
2022/03/07 03:28:14;;;;;;;17.30;10.55;;;;;;;-0.25;68.24;102496.66;3590006;40;20055;-62
2022/03/07 03:30:40;;;;;;;15.68;9.98;;;;;;;-0.29;67.67;102489.53;3588282;40;20308;-62
2022/03/07 03:33:06;;;;;;;15.57;10.20;;;;;;;-0.28;68.55;102492.22;3589022;40;20062;-61
2022/03/07 03:35:36;;;;;;;19.30;11.05;;;;;;;-0.30;68.34;102496.59;3586602;40;20115;-61
2022/03/07 03:38:03;;;;;;;14.90;10.88;;;;;;;-0.29;67.73;102495.72;3589218;40;20109;-62
2022/03/07 03:40:29;;;;;;;14.93;10.52;;;;;;;-0.31;68.11;102500.09;3589060;40;20459;-62
2022/03/07 03:42:54;;;;;;;15.23;10.18;;;;;;;-0.32;67.57;102495.72;3591003;40;20059;-61
2022/03/07 03:45:20;;;;;;;16.58;10.35;;;;;;;-0.93;68.84;102392.06;3588561;40;20064;-62
2022/03/07 03:47:45;;;;;;;17.40;10.60;;;;;;;-0.40;68.73;102492.09;3588327;40;20298;-62
2022/03/07 03:50:14;;;;;;;13.40;10.32;;;;;;;-0.40;68.62;102492.09;3588718;40;20063;-63
2022/03/07 03:52:41;;;;;;;16.40;10.70;;;;;;;-0.40;68.59;102496.50;3590184;40;20056;-62
2022/03/07 03:55:10;;;;;;;15.55;10.82;;;;;;;-0.41;68.91;102494.69;3589230;40;20518;-64
2022/03/07 03:57:40;;;;;;;18.58;10.50;;;;;;;-0.43;68.42;102499.97;3588835;40;20059;-61
2022/03/07 04:00:14;;;;;;;16.65;11.32;;;;;;;-0.45;68.86;102499.06;3588918;40;20160;-61
2022/03/07 04:02:44;;;;;;;15.95;11.05;;;;;;;-0.47;68.78;102498.19;3590195;40;20582;-63
2022/03/07 04:05:12;;;;;;;14.77;10.88;;;;;;;-0.60;68.74;102483.97;3588447;40;20039;-64
2022/03/07 04:07:39;;;;;;;14.07;10.57;;;;;;;-0.47;68.84;102504.34;3587351;40;20371;-63
2022/03/07 04:10:07;;;;;;;13.07;10.60;;;;;;;-0.47;68.63;102503.47;3589978;40;20048;-63
2022/03/07 04:12:33;;;;;;;14.18;10.02;;;;;;;-0.48;68.56;102499.94;3585685;40;20059;-63
2022/03/07 04:14:59;;;;;;;16.50;10.90;;;;;;;-0.50;68.38;102506.97;3584702;40;20199;-63
2022/03/07 04:17:24;;;;;;;18.30;11.15;;;;;;;-0.48;67.91;102505.22;3584300;40;20407;-63
2022/03/07 04:19:50;;;;;;;19.52;10.90;;;;;;;-0.51;68.91;102496.34;3591214;40;20068;-63
2022/03/07 04:22:16;;;;;;;15.93;11.32;;;;;;;-0.58;68.02;102483.97;3587031;40;20390;-63
2022/03/07 04:24:41;;;;;;;17.73;11.20;;;;;;;-0.53;69.05;102501.63;3590283;40;20055;-63
2022/03/07 04:27:07;;;;;;;12.90;10.30;;;;;;;-0.53;68.94;102501.63;3589320;40;20064;-63
2022/03/07 04:29:34;;;;;;;16.90;11.07;;;;;;;-0.55;68.58;102499.84;3587723;40;20330;-63
2022/03/07 04:32:00;;;;;;;15.80;10.38;;;;;;;-0.55;67.92;102502.47;3588966;40;20076;-63
2022/03/07 04:34:27;;;;;;;18.42;10.13;;;;;;;-0.55;68.19;102497.19;3588887;40;20060;-63
2022/03/07 04:36:52;;;;;;;14.32;10.48;;;;;;;-0.58;68.39;102486.59;3588434;40;20062;-63
2022/03/07 04:39:18;;;;;;;15.55;10.98;;;;;;;-0.55;69.25;102492.81;3586196;39;20048;-63
2022/03/07 04:41:44;;;;;;;14.15;11.00;;;;;;;-0.56;68.97;102492.81;3585518;40;20052;-63
2022/03/07 04:44:11;;;;;;;16.33;10.57;;;;;;;-0.54;69.96;102494.59;3588977;40;20367;-64
2022/03/07 04:46:36;;;;;;;14.93;11.23;;;;;;;-0.55;69.74;102497.19;3591700;40;20053;-62
2022/03/07 04:49:03;;;;;;;18.20;11.85;;;;;;;-0.53;70.07;102495.47;3592783;40;20055;-63
2022/03/07 04:51:29;;;;;;;15.38;10.45;;;;;;;-0.49;69.02;102502.56;3591675;40;20145;-63
2022/03/07 04:53:55;;;;;;;16.65;11.02;;;;;;;-0.47;69.86;102493.78;3590099;40;20059;-63
2022/03/07 04:56:21;;;;;;;16.27;11.00;;;;;;;-0.45;68.91;102491.16;3588537;40;20048;-63
2022/03/07 04:58:46;;;;;;;15.50;11.32;;;;;;;-0.42;69.34;102493.81;3588586;40;20117;-63
2022/03/07 05:01:14;;;;;;;19.67;11.00;;;;;;;-0.40;68.69;102491.22;3589367;39;20138;-62
2022/03/07 05:03:40;;;;;;;16.35;11.55;;;;;;;-0.42;68.22;102487.66;3590416;40;20051;-63
2022/03/07 05:06:08;;;;;;;14.70;11.48;;;;;;;-0.41;68.03;102495.59;3587940;40;20070;-62
2022/03/07 05:08:34;;;;;;;20.48;11.63;;;;;;;-0.42;68.40;102501.75;3587727;40;20118;-62
2022/03/07 05:11:01;;;;;;;16.90;12.02;;;;;;;-0.45;68.61;102495.53;3587338;40;20048;-62
2022/03/07 05:13:26;;;;;;;20.95;11.20;;;;;;;-0.48;68.08;102493.75;3587348;40;20060;-62
2022/03/07 05:15:52;;;;;;;15.98;10.93;;;;;;;-0.51;68.92;102493.72;3589065;40;20064;-62
2022/03/07 05:18:18;;;;;;;17.35;10.95;;;;;;;-0.52;69.09;102491.94;3586647;40;20043;-62
2022/03/07 05:20:43;;;;;;;18.02;12.00;;;;;;;-0.53;68.25;102490.19;3590094;40;20064;-62
2022/03/07 05:23:09;;;;;;;17.05;11.40;;;;;;;-0.53;68.13;102495.47;3587456;40;20060;-62
2022/03/07 05:25:35;;;;;;;17.83;11.57;;;;;;;-0.53;68.08;102496.34;3588126;40;20055;-62
2022/03/07 05:28:01;;;;;;;17.45;12.07;;;;;;;-0.52;68.21;102491.94;3584893;40;20080;-62
2022/03/07 05:30:27;;;;;;;17.50;12.15;;;;;;;-0.54;68.35;102498.97;3586391;40;20307;-62
2022/03/07 05:32:54;;;;;;;19.75;12.73;;;;;;;-0.53;67.90;102495.47;3589154;40;20052;-62
2022/03/07 05:35:21;;;;;;;20.55;13.30;;;;;;;-0.54;68.88;102488.41;3588068;40;20386;-62
2022/03/07 05:37:48;;;;;;;18.23;12.35;;;;;;;-0.58;68.53;102497.16;3588866;40;20123;-62
2022/03/07 05:40:16;;;;;;;19.73;12.38;;;;;;;-0.61;68.48;102497.13;3588390;40;20049;-62
2022/03/07 05:42:42;;;;;;;18.50;12.07;;;;;;;-1.03;68.96;102428.03;3587164;40;20120;-62
2022/03/07 05:45:10;;;;;;;19.40;12.02;;;;;;;-0.86;68.45;102459.00;3587117;40;20048;-62
2022/03/07 05:47:38;;;;;;;14.68;11.45;;;;;;;-0.87;68.30;102466.03;3589204;40;20055;-62
2022/03/07 05:50:05;;;;;;;15.77;11.77;;;;;;;-0.67;68.92;102502.34;3586385;40;20048;-63
2022/03/07 05:52:31;;;;;;;15.68;10.82;;;;;;;-0.66;68.92;102509.41;3589491;40;20093;-62
2022/03/07 05:54:56;;;;;;;15.80;11.45;;;;;;;-0.66;69.67;102504.13;3587394;40;20095;-62
2022/03/07 05:57:22;;;;;;;20.15;11.75;;;;;;;-0.95;69.40;102457.16;3590330;40;20406;-62
2022/03/07 05:59:47;;;;;;;19.67;12.07;;;;;;;-0.67;69.58;102500.59;3588768;40;20067;-63
2022/03/07 06:02:13;;;;;;;17.67;12.10;;;;;;;-0.67;68.65;102502.34;3584289;40;20060;-63
2022/03/07 06:04:39;;;;;;;17.38;12.43;;;;;;;-0.69;69.14;102498.81;3585714;40;20047;-62
2022/03/07 06:07:04;;;;;;;20.45;12.38;;;;;;;-0.71;68.57;102509.34;3586367;40;20062;-62
2022/03/07 06:09:30;;;;;;;17.40;12.15;;;;;;;-0.74;68.47;102514.59;3587730;39;20072;-63
2022/03/07 06:11:56;;;;;;;16.38;12.35;;;;;;;-0.75;68.71;102516.34;3593916;40;20402;-62
2022/03/07 06:14:21;;;;;;;20.67;13.50;;;;;;;-0.73;69.47;102519.00;3592455;40;20386;-62
2022/03/07 06:16:47;;;;;;;21.10;12.00;;;;;;;-0.72;68.91;102526.06;3589043;39;20067;-62
2022/03/07 06:19:12;;;;;;;17.67;12.23;;;;;;;-0.69;69.42;102522.59;3588768;40;20586;-62
2022/03/07 06:21:38;;;;;;;20.95;12.82;;;;;;;-0.69;68.95;102525.22;3590159;40;20040;-62
2022/03/07 06:24:04;;;;;;;20.00;13.55;;;;;;;-0.66;69.37;102523.50;3590277;40;20047;-63
2022/03/07 06:26:30;;;;;;;17.83;12.60;;;;;;;-0.77;69.21;102502.22;3590202;40;20071;-64
2022/03/07 06:28:55;;;;;;;23.88;14.55;;;;;;;-0.60;70.22;102530.59;3590723;40;20393;-65
2022/03/07 06:31:21;;;;;;;17.67;13.00;;;;;;;-0.58;69.27;102534.16;3589942;40;20048;-64
2022/03/07 06:33:47;;;;;;;19.90;13.43;;;;;;;-0.53;69.61;102543.03;3587444;40;20375;-65
2022/03/07 06:36:12;;;;;;;23.60;14.00;;;;;;;-0.49;69.86;102550.09;3587402;39;20055;-63
2022/03/07 06:38:39;;;;;;;20.95;13.18;;;;;;;-0.46;70.03;102539.56;3590364;40;20280;-64
2022/03/07 06:41:06;;;;;;;22.13;13.30;;;;;;;-0.41;69.29;102543.16;3589472;40;20079;-63
2022/03/07 06:43:33;;;;;;;30.65;17.73;;;;;;;-0.47;69.87;102524.59;3587864;40;20059;-64
2022/03/07 06:46:00;;;;;;;22.00;14.70;;;;;;;-0.44;68.96;102518.44;3591573;40;20141;-64
2022/03/07 06:48:26;;;;;;;21.90;14.73;;;;;;;-0.22;68.51;102548.63;3589278;40;20068;-64
2022/03/07 06:50:51;;;;;;;23.17;13.75;;;;;;;-0.19;69.10;102543.38;3590718;40;20074;-63
2022/03/07 06:53:17;;;;;;;20.58;13.98;;;;;;;-0.12;68.35;102547.88;3590192;40;20096;-64
2022/03/07 06:55:43;;;;;;;20.02;13.45;;;;;;;-0.37;68.64;102488.59;3587884;40;20079;-64
2022/03/07 06:58:09;;;;;;;19.83;12.80;;;;;;;0.08;67.82;102550.69;3586485;40;20048;-64
2022/03/07 07:00:35;;;;;;;15.57;12.15;;;;;;;0.14;67.96;102553.41;3588180;39;20086;-64
2022/03/07 07:03:01;;;;;;;19.02;13.60;;;;;;;0.25;68.00;102553.47;3587993;39;20060;-64
2022/03/07 07:05:27;;;;;;;23.60;15.40;;;;;;;0.32;67.88;102552.66;3588571;40;20060;-65
2022/03/07 07:07:53;;;;;;;30.13;15.85;;;;;;;0.39;66.79;102550.09;3587581;39;20052;-64
2022/03/07 07:10:19;;;;;;;21.00;13.40;;;;;;;0.53;66.62;102544.88;3590438;40;20056;-64
2022/03/07 07:12:47;;;;;;;20.77;13.88;;;;;;;0.64;66.46;102544.97;3587442;40;20121;-64
2022/03/07 07:15:13;;;;;;;19.48;12.35;;;;;;;0.46;66.07;102498.09;3588438;39;20059;-64
2022/03/07 07:17:39;;;;;;;18.13;12.43;;;;;;;0.83;65.96;102552.16;3589170;40;20129;-66
2022/03/07 07:20:07;;;;;;;17.58;11.98;;;;;;;0.87;65.11;102537.19;3590160;40;20051;-64
2022/03/07 07:22:33;;;;;;;15.93;11.38;;;;;;;1.06;65.12;102546.13;3586464;40;20096;-64
2022/03/07 07:24:59;;;;;;;16.45;12.27;;;;;;;1.20;63.75;102551.47;3590570;40;20055;-64
2022/03/07 07:27:25;;;;;;;16.15;12.05;;;;;;;1.23;64.01;102525.00;3588147;40;20080;-64
2022/03/07 07:29:51;;;;;;;17.08;11.88;;;;;;;1.52;63.86;102547.22;3585925;40;20059;-64
2022/03/07 07:32:17;;;;;;;17.17;11.57;;;;;;;1.72;62.36;102541.94;3585813;39;20067;-64
2022/03/07 07:34:42;;;;;;;14.93;11.30;;;;;;;1.92;62.25;102544.63;3588880;40;20318;-65
2022/03/07 07:37:08;;;;;;;15.73;10.25;;;;;;;2.19;61.63;102542.88;3590967;40;20075;-64
2022/03/07 07:39:34;;;;;;;14.88;11.30;;;;;;;2.49;60.48;102537.59;3585542;39;20064;-64
2022/03/07 07:42:00;;;;;;;14.40;10.45;;;;;;;2.74;59.40;102540.22;3589409;39;20121;-64
2022/03/07 07:44:26;;;;;;;15.63;11.45;;;;;;;3.09;58.19;102545.44;3591450;40;20290;-64
2022/03/07 07:46:53;;;;;;;14.88;10.35;;;;;;;3.37;56.60;102540.03;3590971;40;20384;-64
2022/03/07 09:40:13;;;;;;;6.55;5.95;;;;;;;7.78;40.10;102507.31;3618522;39;20344;-65
2022/03/07 09:42:39;;;;;;;6.32;5.72;;;;;;;8.22;39.34;102515.19;3607302;39;20135;-64
2022/03/07 09:45:05;;;;;;;7.90;5.20;;;;;;;8.28;37.78;102515.06;3623539;22;20362;-62
2022/03/07 09:47:32;;;;;;;5.75;4.88;;;;;;;8.50;38.15;102518.97;3599348;39;20047;-62
2022/03/07 09:49:57;;;;;;;6.22;4.88;;;;;;;8.65;37.49;102514.13;3600384;39;20054;-61
2022/03/07 09:52:24;;;;;;;7.63;5.32;;;;;;;8.58;37.24;102516.06;3599567;39;20322;-62
2022/03/07 09:54:49;;;;;;;7.53;4.68;;;;;;;8.72;37.79;102513.03;3601306;39;20075;-62
2022/03/07 09:57:15;;;;;;;5.75;4.28;;;;;;;8.81;36.24;102516.31;3609392;39;20141;-62
2022/03/07 09:59:40;;;;;;;9.63;5.18;;;;;;;8.80;36.35;102516.38;3610704;39;20385;-62
2022/03/07 10:02:12;;;;;;;6.57;4.70;;;;;;;8.90;37.02;102517.00;3609534;39;20055;-62
2022/03/07 10:04:45;;;;;;;8.45;4.28;;;;;;;8.88;36.45;102505.44;3609750;39;20062;-62
2022/03/07 10:07:13;;;;;;;7.70;4.70;;;;;;;9.09;36.73;102507.53;3609770;39;20113;-61
2022/03/07 10:09:39;;;;;;;5.05;4.50;;;;;;;9.21;36.43;102507.16;3610601;39;20044;-62
2022/03/07 10:12:06;;;;;;;6.00;4.30;;;;;;;9.38;35.65;102498.59;3608975;39;20061;-62
2022/03/07 10:14:47;;;;;;;5.90;4.32;;;;;;;9.21;35.97;102495.56;3610709;39;20051;-64
2022/03/07 10:17:31;;;;;;;6.90;3.92;;;;;;;9.05;36.29;102508.53;3610252;39;20055;-63
2022/03/07 10:20:04;;;;;;;5.57;4.43;;;;;;;9.05;35.98;102498.69;3611988;39;20039;-61
2022/03/07 10:22:30;;;;;;;6.03;4.10;;;;;;;9.12;36.39;102485.09;3609812;39;20153;-63
2022/03/07 10:25:09;;;;;;;5.30;4.10;;;;;;;9.30;36.27;102477.38;3610001;39;20071;-62
2022/03/07 10:27:44;;;;;;;5.13;3.60;;;;;;;9.50;35.98;102492.00;3608618;39;20061;-62
2022/03/07 10:30:17;;;;;;;5.78;3.60;;;;;;;9.50;35.57;102471.41;3608623;39;20365;-62
2022/03/07 10:32:54;;;;;;;5.72;4.03;;;;;;;9.80;35.27;102478.53;3608940;39;20059;-62
2022/03/07 10:35:29;;;;;;;4.72;3.53;;;;;;;9.84;34.80;102464.97;3611064;39;20051;-63
2022/03/07 10:38:09;;;;;;;4.07;3.67;;;;;;;10.22;34.13;102492.38;3607829;39;20055;-62
2022/03/07 10:40:40;;;;;;;3.90;3.47;;;;;;;10.25;34.11;102476.16;3604947;39;20059;-63
2022/03/07 10:43:08;;;;;;;4.25;3.47;;;;;;;10.37;34.24;102478.47;3603259;39;20400;-63
2022/03/07 10:45:57;;;;;;;5.15;3.53;;;;;;;10.55;34.44;102467.97;3603769;39;20087;-63
2022/03/07 10:48:27;;;;;;;5.72;3.80;;;;;;;10.56;34.02;102448.22;3600055;39;20052;-63
2022/03/07 10:50:59;;;;;;;6.10;3.97;;;;;;;10.75;33.82;102464.56;3601587;39;20044;-63
2022/03/07 10:53:26;;;;;;;6.68;3.88;;;;;;;10.67;33.97;102462.16;3602196;39;20059;-62
2022/03/07 10:55:56;;;;;;;13.38;4.00;;;;;;;10.43;33.62;102454.06;3600876;39;20062;-62
2022/03/07 10:58:23;;;;;;;10.20;4.18;;;;;;;10.33;33.93;102447.22;3605503;39;20055;-62
2022/03/07 11:00:51;;;;;;;4.53;3.78;;;;;;;10.30;33.57;102439.25;3603086;39;20047;-62
2022/03/07 11:03:23;;;;;;;6.18;3.90;;;;;;;10.43;33.63;102439.72;3601507;39;20063;-62
2022/03/07 11:05:50;;;;;;;8.25;4.30;;;;;;;10.26;33.34;102443.00;3602547;39;20055;-62
2022/03/07 11:08:17;;;;;;;4.88;4.07;;;;;;;10.34;33.93;102438.25;3601535;39;20059;-62
2022/03/07 11:10:48;;;;;;;4.60;3.75;;;;;;;10.26;34.60;102402.69;3602202;39;20051;-62
2022/03/07 11:13:16;;;;;;;6.47;4.00;;;;;;;10.74;33.79;102436.78;3601766;39;20096;-63
2022/03/07 11:15:45;;;;;;;6.80;4.03;;;;;;;10.93;33.32;102437.00;3600476;39;20047;-62
2022/03/07 11:18:13;;;;;;;6.32;3.72;;;;;;;10.89;32.80;102425.47;3602632;39;20067;-62
2022/03/07 11:20:45;;;;;;;6.30;4.45;;;;;;;11.01;33.63;102428.66;3600415;39;20059;-63
2022/03/07 11:23:18;;;;;;;5.07;4.47;;;;;;;11.07;34.00;102428.41;3600397;39;20401;-63
2022/03/07 11:25:46;;;;;;;8.70;4.77;;;;;;;11.32;32.60;102417.53;3597244;39;20087;-63
2022/03/07 11:28:12;;;;;;;5.53;4.35;;;;;;;11.30;33.10;102420.31;3600968;39;20059;-64
2022/03/07 11:30:43;;;;;;;6.07;4.63;;;;;;;11.46;33.55;102408.94;3599066;39;20570;-63
2022/03/07 11:33:16;;;;;;;5.88;4.22;;;;;;;11.62;32.61;102410.06;3598845;39;20144;-63
2022/03/07 11:35:49;;;;;;;5.18;4.22;;;;;;;11.83;32.10;102402.94;3595935;39;20047;-63
2022/03/07 11:38:17;;;;;;;5.70;4.30;;;;;;;12.06;32.40;102388.50;3598392;39;20822;-63
2022/03/07 11:41:13;;;;;;;8.35;4.00;;;;;;;11.74;31.03;102396.09;3601693;39;20385;-62
2022/03/07 11:44:00;;;;;;;11.52;4.35;;;;;;;11.55;32.01;102392.41;3601873;39;20409;-61
2022/03/07 11:46:31;;;;;;;7.05;4.30;;;;;;;11.79;32.57;102377.91;3596124;39;20052;-62
2022/03/07 11:48:57;;;;;;;4.90;4.00;;;;;;;11.99;31.63;102366.34;3597659;39;20125;-62
2022/03/07 11:51:27;;;;;;;5.15;4.13;;;;;;;12.23;30.78;102379.69;3594781;39;20040;-63
2022/03/07 11:53:55;;;;;;;5.20;4.28;;;;;;;12.42;30.92;102379.75;3597076;39;20048;-63
2022/03/07 11:56:31;;;;;;;7.45;4.55;;;;;;;12.47;29.85;102383.13;3601331;39;20064;-63
2022/03/07 11:58:59;;;;;;;5.40;4.53;;;;;;;12.57;30.61;102367.41;3599661;39;20058;-64
2022/03/07 12:01:28;;;;;;;4.78;4.00;;;;;;;12.54;30.21;102344.13;3596638;39;20060;-63
2022/03/07 12:03:54;;;;;;;5.85;4.40;;;;;;;12.93;30.70;102375.59;3600992;39;20086;-61
2022/03/07 12:06:22;;;;;;;5.97;4.50;;;;;;;12.98;29.43;102371.75;3600778;39;20059;-62
2022/03/07 12:08:53;;;;;;;7.65;4.13;;;;;;;13.10;30.09;102375.69;3600856;39;20032;-62
2022/03/07 12:11:38;;;;;;;5.45;4.50;;;;;;;13.20;29.24;102368.91;3599946;39;20351;-62
2022/03/07 12:14:09;;;;;;;8.20;4.53;;;;;;;13.08;29.74;102365.91;3600468;39;20081;-62
2022/03/07 12:16:42;;;;;;;9.75;5.32;;;;;;;12.80;29.78;102342.03;3597486;39;20390;-62
2022/03/07 12:19:19;;;;;;;5.00;4.50;;;;;;;12.83;29.70;102361.66;3600141;39;20062;-64
2022/03/07 12:21:48;;;;;;;5.78;4.82;;;;;;;12.93;30.42;102362.09;3598397;39;20105;-64
2022/03/07 12:24:18;;;;;;;8.93;4.60;;;;;;;12.92;29.88;102346.88;3599678;39;20124;-64
2022/03/07 12:26:56;;;;;;;6.45;5.05;;;;;;;12.93;29.51;102337.81;3600239;39;20053;-64
2022/03/07 12:29:25;;;;;;;7.90;5.03;;;;;;;13.12;30.14;102333.28;3598212;39;20052;-64
2022/03/07 12:31:55;;;;;;;6.53;4.90;;;;;;;13.27;29.73;102338.94;3600298;39;20051;-64
2022/03/07 12:34:30;;;;;;;7.88;4.82;;;;;;;13.36;28.88;102330.38;3599657;39;20051;-65
2022/03/07 12:36:58;;;;;;;6.13;4.65;;;;;;;13.49;28.62;102328.81;3599104;39;20383;-64
2022/03/07 12:39:26;;;;;;;8.40;5.18;;;;;;;13.43;28.50;102329.09;3600158;39;20051;-64
2022/03/07 12:41:52;;;;;;;5.20;4.70;;;;;;;13.45;28.58;102305.59;3602817;39;20067;-64
2022/03/07 12:44:17;;;;;;;8.68;5.15;;;;;;;13.54;29.05;102326.75;3597471;39;20055;-65
2022/03/07 12:46:44;;;;;;;8.98;5.60;;;;;;;13.45;28.31;102305.59;3600519;39;20062;-64
2022/03/07 12:49:16;;;;;;;6.47;4.97;;;;;;;13.28;28.39;102316.34;3599083;39;20144;-64
2022/03/07 12:51:42;;;;;;;7.30;5.00;;;;;;;13.11;29.36;102315.34;3600222;39;20474;-64
2022/03/07 12:54:08;;;;;;;6.75;4.85;;;;;;;13.27;28.87;102309.22;3600625;39;20051;-64
2022/03/07 12:56:44;;;;;;;6.20;5.07;;;;;;;13.29;28.72;102269.50;3599972;39;20559;-65
2022/03/07 12:59:12;;;;;;;6.57;4.70;;;;;;;13.70;28.30;102292.59;3598426;39;20120;-63
2022/03/07 13:01:49;;;;;;;7.03;4.70;;;;;;;13.97;27.53;102302.91;3600223;39;20363;-63
2022/03/07 13:04:25;;;;;;;6.38;4.88;;;;;;;14.02;28.55;102297.25;3598618;39;20110;-65
2022/03/07 13:06:53;;;;;;;12.75;5.13;;;;;;;14.14;27.63;102296.59;3602822;39;20059;-63
2022/03/07 13:09:28;;;;;;;7.43;4.63;;;;;;;13.76;27.39;102258.94;3600275;39;20124;-62
2022/03/07 13:11:55;;;;;;;9.30;4.63;;;;;;;13.86;27.30;102286.38;3599954;39;20044;-63
2022/03/07 13:14:27;;;;;;;5.53;4.47;;;;;;;13.91;27.72;102273.50;3598540;39;20056;-63